Campbell Hill, Illinois
Current Conditions -  °F | °C
As of 10:15 AM on Wednesday 28 Jan 2015 (Local Time) from KSAR Reporting Station
Clear Clear  
Wind Chill: 26°   Ceiling: Unl
Heat Index: 34°   Visibility: 10mi
Dew Point: 28°   Wind: 10mph
Humidity: 79%   Direction: 150°SSE
Pressure: 30.28"   Gusts: 16mph
Location:  37.93°N, 89.55°W
Report Text: KSAR 281615Z AUTO 15009G14KT 10SM CLR 01/M02 A3028 RMK AO2 T00131020
Loading
Personal Weather Stations






























Interactive Weather Map New forecast layout! Learn more

10-Day Weather Forecast

Advertisements
Track Severe Weather on mobile